Time;durP1;ratioP1;P1;durP2;ratioP2;P2;SDS_P1;SDS_P2;PMS_P1;PMS_P2;Temp;Humidity;BMP_temperature;BMP_pressure;BME280_temperature;BME280_humidity;BME280_pressure;Samples;Min_cycle;Max_cycle;Signal;HPM_P1;HPM_P2
2022/11/07 00:01:49;;;;;;;14.73;10.32;;;;;;;6.53;100.00;96063.75;5057182;28;20133;-62
2022/11/07 00:04:14;;;;;;;11.65;9.18;;;;;;;6.50;100.00;96060.50;5053981;28;20063;-62
2022/11/07 00:06:40;;;;;;;13.77;9.68;;;;;;;6.43;100.00;96068.78;5064841;28;20033;-62
2022/11/07 00:09:06;;;;;;;13.27;9.93;;;;;;;6.37;100.00;96063.16;5071889;28;20028;-62
2022/11/07 00:11:31;;;;;;;14.60;10.18;;;;;;;6.29;100.00;96061.88;5047347;28;20021;-62
2022/11/07 00:13:56;;;;;;;17.38;12.52;;;;;;;6.17;100.00;96054.91;5046714;28;20038;-62
2022/11/07 00:16:22;;;;;;;17.92;12.70;;;;;;;6.09;100.00;96050.19;5026842;28;20024;-54
2022/11/07 00:18:47;;;;;;;14.95;11.20;;;;;;;6.03;100.00;96048.00;5039532;28;20086;-62
2022/11/07 00:21:13;;;;;;;17.52;12.02;;;;;;;5.97;100.00;96046.63;5061381;28;20075;-51
2022/11/07 00:23:40;;;;;;;14.23;10.98;;;;;;;5.93;100.00;96049.53;5059013;28;20041;-54
2022/11/07 00:26:08;;;;;;;13.95;9.95;;;;;;;5.85;100.00;96044.81;5048926;28;20048;-52
2022/11/07 00:28:36;;;;;;;14.10;10.60;;;;;;;5.79;100.00;96040.88;5059946;28;20041;-55
2022/11/07 00:31:01;;;;;;;12.32;10.32;;;;;;;5.72;100.00;96043.06;5049141;28;20107;-52
2022/11/07 00:33:27;;;;;;;18.63;9.40;;;;;;;5.67;100.00;96045.16;5036965;28;20160;-54
2022/11/07 00:35:52;;;;;;;12.90;9.15;;;;;;;5.61;100.00;96058.59;5063281;28;20062;-53
2022/11/07 00:38:17;;;;;;;11.48;8.70;;;;;;;5.60;100.00;96059.53;5052222;28;20415;-61
2022/11/07 00:41:02;;;;;;;10.35;8.30;;;;;;;5.80;100.00;96050.38;5049094;28;20043;-53
2022/11/07 00:43:29;;;;;;;10.10;6.20;;;;;;;5.67;100.00;96060.81;5054084;28;20024;-57
2022/11/07 00:45:54;;;;;;;7.75;6.28;;;;;;;5.59;100.00;96065.69;5034934;28;20116;-56
2022/11/07 00:48:20;;;;;;;7.53;6.65;;;;;;;5.52;100.00;96067.06;5051676;28;20030;-54
2022/11/07 00:50:45;;;;;;;9.52;7.30;;;;;;;5.39;100.00;96057.41;5063439;28;20044;-54
2022/11/07 00:53:11;;;;;;;10.02;7.38;;;;;;;5.28;100.00;96067.72;4996769;28;20039;-54
2022/11/07 00:55:36;;;;;;;9.35;7.20;;;;;;;5.25;100.00;96076.59;5044272;28;20041;-60
2022/11/07 00:58:02;;;;;;;9.40;7.32;;;;;;;5.22;100.00;96081.19;5062052;28;20089;-61
2022/11/07 01:00:27;;;;;;;8.93;6.75;;;;;;;5.18;100.00;96074.47;5060842;28;20488;-62
2022/11/07 01:05:37;;;;;;;8.70;6.25;;;;;;;5.08;100.00;96075.06;5047013;28;20105;-62
2022/11/07 01:08:03;;;;;;;7.15;6.22;;;;;;;5.03;100.00;96071.94;5049356;28;20041;-62
2022/11/07 01:10:29;;;;;;;7.43;5.82;;;;;;;5.02;100.00;96076.28;5061907;28;20056;-62
2022/11/07 01:12:54;;;;;;;8.15;5.63;;;;;;;4.95;100.00;96074.16;5049830;28;20235;-62
2022/11/07 01:15:20;;;;;;;7.40;6.45;;;;;;;4.89;100.00;96080.63;5029854;28;20035;-62
2022/11/07 01:17:45;;;;;;;7.55;5.70;;;;;;;4.85;100.00;96085.19;5056054;28;20066;-61
2022/11/07 01:20:11;;;;;;;6.47;5.35;;;;;;;4.81;100.00;96078.50;5041773;28;20061;-60
2022/11/07 01:22:37;;;;;;;10.98;6.70;;;;;;;4.76;100.00;96084.94;5042716;28;20035;-61
2022/11/07 01:25:03;;;;;;;10.55;5.93;;;;;;;4.68;100.00;96082.81;5051043;28;20085;-60
2022/11/07 01:27:28;;;;;;;6.00;5.40;;;;;;;4.65;100.00;96081.25;5049192;28;20032;-61
2022/11/07 01:29:53;;;;;;;8.00;5.35;;;;;;;4.65;100.00;96083.84;5064162;28;20033;-61
2022/11/07 01:32:19;;;;;;;9.85;5.40;;;;;;;4.64;100.00;96071.75;5055699;28;20139;-61
2022/11/07 01:34:44;;;;;;;9.80;6.28;;;;;;;4.55;100.00;96073.16;5049736;28;20111;-61
2022/11/07 01:37:10;;;;;;;8.20;5.85;;;;;;;4.51;100.00;96086.47;5057210;28;20100;-61
2022/11/07 01:39:36;;;;;;;10.73;6.22;;;;;;;4.45;100.00;96077.25;5045348;28;20055;-62
2022/11/07 01:42:01;;;;;;;5.40;4.93;;;;;;;4.41;100.00;96076.59;5041988;28;20059;-62
2022/11/07 01:44:26;;;;;;;7.80;5.40;;;;;;;4.38;100.00;96078.56;5053884;28;20545;-62
2022/11/07 01:46:56;;;;;;;14.30;6.85;;;;;;;4.35;100.00;96073.53;5049900;28;20107;-62
2022/11/07 01:49:35;;;;;;;31.88;15.10;;;;;;;4.28;100.00;96079.13;5057740;28;20382;-62
2022/11/07 01:52:07;;;;;;;32.78;13.13;;;;;;;4.23;100.00;96075.97;5045244;28;20037;-62
2022/11/07 01:54:58;;;;;;;13.30;7.15;;;;;;;4.24;100.00;96071.59;5062562;28;20032;-61
2022/11/07 01:57:34;;;;;;;12.40;6.00;;;;;;;4.20;100.00;96081.38;5047768;28;20024;-62
2022/11/07 02:00:03;;;;;;;15.88;7.63;;;;;;;4.18;100.00;96078.00;5043111;28;20035;-62
2022/11/07 02:02:29;;;;;;;24.20;13.43;;;;;;;4.11;100.00;96081.94;5052182;28;20033;-62
2022/11/07 02:04:56;;;;;;;29.50;15.90;;;;;;;4.09;100.00;96082.00;5045249;28;20094;-62
2022/11/07 02:07:23;;;;;;;33.97;16.58;;;;;;;4.08;100.00;96069.91;5045501;28;20054;-62
2022/11/07 02:09:53;;;;;;;26.55;13.18;;;;;;;4.04;100.00;96073.63;5059499;28;20027;-62
2022/11/07 02:12:19;;;;;;;20.30;12.85;;;;;;;4.03;100.00;96076.31;5048842;28;20433;-61
2022/11/07 02:14:45;;;;;;;27.88;15.18;;;;;;;3.98;100.00;96074.84;5034860;28;20046;-61
2022/11/07 02:17:12;;;;;;;25.05;14.02;;;;;;;3.94;100.00;96081.16;5043686;28;20078;-59
2022/11/07 02:19:43;;;;;;;26.27;12.25;;;;;;;3.90;100.00;96077.06;5031703;28;20046;-59
2022/11/07 02:22:16;;;;;;;16.70;11.02;;;;;;;3.91;100.00;96077.91;5025842;28;20092;-59
2022/11/07 02:24:42;;;;;;;13.90;8.23;;;;;;;3.85;100.00;96079.94;5040897;28;20103;-59
2022/11/07 02:27:12;;;;;;;13.70;9.25;;;;;;;3.82;100.00;96071.47;5033587;28;20573;-60
2022/11/07 02:29:41;;;;;;;9.35;6.05;;;;;;;3.84;100.00;96073.06;5039313;28;20033;-59
2022/11/07 02:32:09;;;;;;;4.38;3.95;;;;;;;3.85;100.00;96064.31;5021000;28;20034;-59
2022/11/07 02:34:35;;;;;;;7.97;4.82;;;;;;;3.90;100.00;96061.44;5037787;28;20032;-59
2022/11/07 02:37:05;;;;;;;6.22;4.40;;;;;;;3.85;100.00;96071.28;5045992;28;20035;-53
2022/11/07 02:39:31;;;;;;;7.95;4.97;;;;;;;3.84;100.00;96072.22;5061124;28;20044;-53
2022/11/07 02:41:59;;;;;;;7.07;4.90;;;;;;;3.83;100.00;96076.59;5058670;28;20046;-50
2022/11/07 02:44:25;;;;;;;6.50;4.65;;;;;;;3.79;100.00;96079.47;5054070;28;20083;-50
2022/11/07 02:46:51;;;;;;;5.97;4.97;;;;;;;3.73;100.00;96080.66;5068982;28;20040;-55
2022/11/07 02:49:17;;;;;;;7.25;4.95;;;;;;;3.67;100.00;96071.47;5068775;28;20042;-50
2022/11/07 02:51:42;;;;;;;6.35;5.30;;;;;;;3.64;100.00;96078.59;5068043;28;20766;-61
2022/11/07 02:54:08;;;;;;;4.55;4.15;;;;;;;3.63;100.00;96071.72;5067927;28;20106;-61
2022/11/07 02:56:33;;;;;;;6.88;4.43;;;;;;;3.62;100.00;96080.47;5068924;28;20075;-59
2022/11/07 02:58:58;;;;;;;7.25;5.20;;;;;;;3.61;100.00;96077.00;5068563;28;20024;-59
2022/11/07 03:01:24;;;;;;;8.82;5.30;;;;;;;3.57;100.00;96075.50;5068304;28;20092;-59
2022/11/07 03:03:50;;;;;;;6.63;5.13;;;;;;;3.52;100.00;96078.38;5068747;28;20101;-59
2022/11/07 03:06:26;;;;;;;8.40;4.70;;;;;;;3.48;100.00;96081.25;5068806;28;20036;-59
2022/11/07 03:08:51;;;;;;;6.75;4.63;;;;;;;3.46;100.00;96081.34;5068786;28;20020;-59
2022/11/07 03:11:20;;;;;;;5.53;3.65;;;;;;;3.46;100.00;96073.53;5069058;28;20045;-52
2022/11/07 03:13:49;;;;;;;4.95;4.43;;;;;;;3.45;100.00;96066.66;5068013;28;20107;-52
2022/11/07 03:16:16;;;;;;;4.78;4.28;;;;;;;3.46;100.00;96068.31;5068157;28;20036;-52
2022/11/07 03:18:42;;;;;;;5.65;4.75;;;;;;;3.45;100.00;96064.03;5068197;28;20120;-55
2022/11/07 03:21:07;;;;;;;5.68;4.75;;;;;;;3.42;100.00;96062.44;5068180;28;20135;-52
2022/11/07 03:23:34;;;;;;;6.07;4.70;;;;;;;3.38;100.00;96055.75;5067519;28;20035;-54
2022/11/07 03:26:00;;;;;;;5.45;4.22;;;;;;;3.34;100.00;96050.81;5067560;28;20093;-51
2022/11/07 03:28:25;;;;;;;6.07;4.25;;;;;;;3.29;100.00;96053.69;5068512;28;20414;-56
2022/11/07 03:30:51;;;;;;;3.35;3.10;;;;;;;3.26;100.00;96061.66;5050706;28;20119;-61
2022/11/07 03:33:17;;;;;;;7.75;3.22;;;;;;;3.28;100.00;96067.63;5068291;28;20032;-73
2022/11/07 03:35:42;;;;;;;4.65;4.05;;;;;;;3.28;100.00;96070.22;5067741;28;20059;-74
2022/11/07 03:38:09;;;;;;;3.45;3.15;;;;;;;3.24;100.00;96063.53;5068007;28;20078;-74
2022/11/07 03:40:34;;;;;;;3.65;3.03;;;;;;;3.19;100.00;96070.72;5053469;28;20031;-73
2022/11/07 03:42:59;;;;;;;3.35;3.05;;;;;;;3.20;100.00;96073.25;5051174;28;20036;-74
2022/11/07 03:45:25;;;;;;;3.20;3.00;;;;;;;3.21;100.00;96066.31;5068263;28;20440;-73
2022/11/07 03:47:50;;;;;;;3.80;3.42;;;;;;;3.22;100.00;96065.38;5068468;28;20482;-73
2022/11/07 03:50:20;;;;;;;3.63;3.40;;;;;;;3.19;100.00;96063.78;5068439;28;20036;-61
2022/11/07 03:52:46;;;;;;;3.80;2.95;;;;;;;3.17;100.00;96063.03;5067734;28;20047;-60
2022/11/07 03:55:14;;;;;;;3.92;2.97;;;;;;;3.13;100.00;96067.56;5067560;28;20036;-60
2022/11/07 03:57:40;;;;;;;3.28;3.03;;;;;;;3.10;100.00;96072.94;5068255;28;20047;-61
2022/11/07 04:00:07;;;;;;;2.90;2.70;;;;;;;3.02;100.00;96062.16;5067728;28;20032;-60
2022/11/07 04:02:32;;;;;;;3.85;3.08;;;;;;;3.01;100.00;96073.47;5068022;28;20064;-61
2022/11/07 04:04:58;;;;;;;2.90;2.70;;;;;;;2.98;100.00;96077.06;5067173;28;20482;-61
2022/11/07 04:07:23;;;;;;;4.18;3.10;;;;;;;2.99;100.00;96072.72;5068003;28;20517;-62
2022/11/07 04:09:48;;;;;;;3.20;3.00;;;;;;;2.97;100.00;96078.00;5068269;28;20441;-60
2022/11/07 04:17:41;;;;;;;5.05;3.15;;;;;;;2.90;100.00;96086.22;5067932;28;20167;-60
2022/11/07 04:20:08;;;;;;;4.85;2.90;;;;;;;2.90;100.00;96097.47;5068621;28;20119;-59
2022/11/07 04:22:34;;;;;;;3.42;3.05;;;;;;;2.94;100.00;96103.34;5067751;28;20044;-60
2022/11/07 04:24:59;;;;;;;3.30;3.10;;;;;;;3.11;100.00;96108.44;5067733;28;20033;-59
2022/11/07 04:27:43;;;;;;;3.40;3.10;;;;;;;3.11;100.00;96116.25;5067392;28;20515;-61
2022/11/07 04:30:19;;;;;;;3.70;3.00;;;;;;;3.04;100.00;96109.72;5067858;28;20029;-50
2022/11/07 04:32:45;;;;;;;3.25;2.90;;;;;;;2.97;100.00;96118.75;5070772;28;20040;-72
2022/11/07 04:35:10;;;;;;;4.45;2.90;;;;;;;2.92;100.00;96116.44;5071015;28;20441;-72
2022/11/07 04:37:36;;;;;;;3.40;3.05;;;;;;;2.90;100.00;96109.63;5070765;28;20036;-72
2022/11/07 04:40:01;;;;;;;3.10;2.90;;;;;;;2.89;100.00;96118.34;5071909;28;20078;-72
2022/11/07 04:42:27;;;;;;;3.20;2.90;;;;;;;2.86;100.00;96117.59;5071276;28;20043;-72
2022/11/07 04:44:52;;;;;;;2.70;2.60;;;;;;;2.83;100.00;96116.91;5071147;28;20052;-72
2022/11/07 04:47:17;;;;;;;3.60;3.05;;;;;;;2.78;100.00;96119.78;5071450;28;20032;-73
2022/11/07 04:49:43;;;;;;;10.00;3.08;;;;;;;2.81;100.00;96122.22;5071567;28;20036;-73
2022/11/07 04:52:09;;;;;;;2.95;2.75;;;;;;;2.82;100.00;96116.09;5071050;28;20070;-75
2022/11/07 04:54:34;;;;;;;3.75;3.10;;;;;;;2.82;100.00;96120.44;5070769;28;20044;-74
2022/11/07 04:56:59;;;;;;;3.58;2.70;;;;;;;2.82;100.00;96116.09;5066270;28;20085;-74
2022/11/07 04:59:25;;;;;;;3.60;3.05;;;;;;;2.84;100.00;96118.59;5071570;28;20041;-74
2022/11/07 05:01:50;;;;;;;3.95;3.25;;;;;;;2.92;100.00;96115.59;5070744;28;20039;-74
2022/11/07 05:04:15;;;;;;;4.72;4.13;;;;;;;2.95;100.00;96111.06;5041207;28;20052;-74
2022/11/07 05:06:41;;;;;;;8.25;4.07;;;;;;;2.96;100.00;96101.47;5069146;28;20039;-61
2022/11/07 05:09:08;;;;;;;5.78;4.20;;;;;;;2.98;100.00;96104.84;5071189;28;20041;-61
2022/11/07 05:11:33;;;;;;;7.47;4.20;;;;;;;2.95;100.00;96105.00;5071004;28;20030;-60
2022/11/07 05:13:58;;;;;;;4.28;3.60;;;;;;;2.90;100.00;96101.81;5070850;28;20028;-61
2022/11/07 05:16:24;;;;;;;5.50;4.45;;;;;;;2.90;100.00;96117.44;5070309;28;20116;-60
2022/11/07 05:18:49;;;;;;;5.60;5.00;;;;;;;2.92;100.00;96115.59;5070829;28;20111;-60
2022/11/07 05:21:15;;;;;;;8.85;4.53;;;;;;;2.92;100.00;96115.59;5069612;28;20487;-60
2022/11/07 05:23:40;;;;;;;7.15;4.53;;;;;;;2.89;100.00;96116.59;5069761;28;20035;-60
2022/11/07 05:26:05;;;;;;;5.22;4.72;;;;;;;2.76;100.00;96113.00;5065415;28;20040;-60
2022/11/07 05:28:32;;;;;;;7.43;5.13;;;;;;;2.68;100.00;96114.25;5066025;28;20510;-61
2022/11/07 05:31:03;;;;;;;5.18;4.78;;;;;;;2.65;100.00;96113.56;5070400;28;20028;-61
2022/11/07 05:33:29;;;;;;;5.40;4.90;;;;;;;2.62;100.00;96114.56;5070183;28;20405;-61
2022/11/07 05:35:54;;;;;;;5.45;4.90;;;;;;;2.63;100.00;96120.63;5067819;28;20040;-61
2022/11/07 05:38:20;;;;;;;12.88;9.43;;;;;;;2.58;100.00;96126.91;5069851;28;20036;-61
2022/11/07 05:40:45;;;;;;;7.95;7.15;;;;;;;2.56;100.00;96130.50;5070578;28;20162;-61
2022/11/07 05:43:13;;;;;;;8.38;5.90;;;;;;;2.56;100.00;96131.34;5069413;28;20039;-61
2022/11/07 05:45:39;;;;;;;5.57;5.07;;;;;;;2.57;100.00;96138.22;5069664;28;20145;-52
2022/11/07 05:48:12;;;;;;;9.52;5.10;;;;;;;2.56;100.00;96133.09;5069649;28;20032;-69
2022/11/07 05:50:38;;;;;;;5.65;5.05;;;;;;;2.54;100.00;96132.34;5069464;28;20528;-69
2022/11/07 05:53:04;;;;;;;5.22;4.72;;;;;;;2.51;100.00;96140.31;5069512;28;20037;-69
2022/11/07 05:55:30;;;;;;;5.13;4.28;;;;;;;2.51;100.00;96148.94;5069646;28;20043;-69
2022/11/07 05:57:55;;;;;;;5.07;4.68;;;;;;;2.53;100.00;96135.88;5070434;28;20032;-69
2022/11/07 06:00:21;;;;;;;8.10;7.30;;;;;;;2.58;100.00;96133.84;5069975;28;20034;-69
2022/11/07 06:02:59;;;;;;;7.25;6.55;;;;;;;2.58;100.00;96139.06;5069822;28;20653;-62
2022/11/07 06:05:24;;;;;;;5.95;5.45;;;;;;;2.49;100.00;96131.75;5059146;28;20029;-61
2022/11/07 06:07:50;;;;;;;7.15;6.45;;;;;;;2.49;100.00;96131.75;5069475;28;20045;-61
2022/11/07 06:10:15;;;;;;;7.22;5.93;;;;;;;2.50;100.00;96139.44;5070262;28;20107;-61
2022/11/07 06:12:41;;;;;;;6.65;5.78;;;;;;;2.53;100.00;96139.28;5068612;28;20119;-61
2022/11/07 06:15:06;;;;;;;10.68;8.52;;;;;;;2.49;100.00;96142.97;5069356;28;20116;-61
2022/11/07 06:17:32;;;;;;;11.77;8.45;;;;;;;2.49;100.00;96144.75;5068982;28;20044;-61
2022/11/07 06:19:57;;;;;;;8.10;7.30;;;;;;;2.62;100.00;96147.53;5069914;28;20036;-61
2022/11/07 06:22:24;;;;;;;10.90;8.43;;;;;;;2.55;100.00;96147.88;5069753;28;20032;-73
2022/11/07 06:24:49;;;;;;;10.38;8.73;;;;;;;2.48;100.00;96146.50;5051012;28;20032;-53
2022/11/07 06:27:15;;;;;;;13.68;7.60;;;;;;;2.47;100.00;96149.19;5069583;28;20036;-59
2022/11/07 06:29:40;;;;;;;11.65;7.70;;;;;;;2.50;100.00;96149.84;5069346;28;20028;-59
2022/11/07 06:32:05;;;;;;;12.05;7.85;;;;;;;2.48;100.00;96154.28;5068773;28;20119;-59
2022/11/07 06:34:31;;;;;;;9.63;7.47;;;;;;;2.42;100.00;96155.44;5068158;28;20094;-59
2022/11/07 06:36:56;;;;;;;9.65;7.88;;;;;;;2.39;100.00;96147.00;5047031;28;20047;-59
2022/11/07 06:39:22;;;;;;;8.13;6.82;;;;;;;2.38;100.00;96148.72;5068954;28;20025;-59
2022/11/07 06:41:48;;;;;;;9.68;7.97;;;;;;;2.36;100.00;96149.75;5062607;28;20040;-69
2022/11/07 06:44:14;;;;;;;11.77;8.25;;;;;;;2.35;100.00;96150.69;5066999;28;20037;-74
2022/11/07 06:46:40;;;;;;;8.93;8.10;;;;;;;2.34;100.00;96151.59;5063190;28;20414;-60
2022/11/07 06:49:05;;;;;;;10.70;9.60;;;;;;;2.35;100.00;96151.50;5068593;28;20036;-60
2022/11/07 06:51:30;;;;;;;14.65;10.35;;;;;;;2.33;100.00;96158.53;5067317;28;20106;-61
2022/11/07 06:53:56;;;;;;;11.07;9.63;;;;;;;2.33;100.00;96155.13;5067690;28;20103;-58
2022/11/07 06:56:22;;;;;;;12.95;10.60;;;;;;;2.32;100.00;96149.06;5068428;28;20035;-55
2022/11/07 06:58:47;;;;;;;16.00;11.57;;;;;;;2.31;100.00;96146.53;5068903;28;20386;-56
2022/11/07 07:01:13;;;;;;;12.70;10.60;;;;;;;2.39;100.00;96147.00;5049575;28;20028;-70
2022/11/07 07:03:40;;;;;;;13.18;11.20;;;;;;;2.49;100.00;96155.16;5067167;28;20044;-60
2022/11/07 07:06:09;;;;;;;14.00;10.45;;;;;;;2.51;100.00;96141.13;5066668;28;20128;-70
2022/11/07 07:08:34;;;;;;;12.10;10.75;;;;;;;2.54;100.00;96147.94;5068145;28;20041;-69
2022/11/07 07:11:10;;;;;;;9.43;8.50;;;;;;;2.53;100.00;96149.69;5067263;28;20074;-70
2022/11/07 07:13:36;;;;;;;10.07;9.05;;;;;;;2.52;100.00;96145.41;5058627;28;20044;-69
2022/11/07 07:16:02;;;;;;;14.25;10.43;;;;;;;2.51;100.00;96153.31;5049825;28;20039;-72
2022/11/07 07:18:27;;;;;;;9.85;8.82;;;;;;;2.51;100.00;96148.94;5068171;28;20418;-71
2022/11/07 07:21:10;;;;;;;10.52;9.02;;;;;;;2.57;100.00;96156.41;5068646;28;20033;-55
2022/11/07 07:23:37;;;;;;;16.50;11.48;;;;;;;2.67;100.00;96163.72;5049724;28;20420;-68
2022/11/07 07:26:05;;;;;;;13.73;11.55;;;;;;;2.69;100.00;96167.94;5064357;28;20094;-63
2022/11/07 07:28:30;;;;;;;11.73;10.27;;;;;;;2.72;100.00;96174.72;5067694;28;20478;-63
2022/11/07 07:31:19;;;;;;;14.15;10.55;;;;;;;2.75;100.00;96186.72;5068839;28;20119;-62
2022/11/07 07:33:46;;;;;;;15.07;11.85;;;;;;;2.71;100.00;96192.09;5064858;28;20041;-63
2022/11/07 07:36:12;;;;;;;19.20;12.45;;;;;;;2.72;100.00;96192.91;5055549;28;20036;-62
2022/11/07 07:38:37;;;;;;;17.83;11.73;;;;;;;2.73;100.00;96189.38;5068034;28;20050;-62
2022/11/07 07:41:03;;;;;;;17.48;12.70;;;;;;;2.76;100.00;96194.41;5068226;28;20452;-51
2022/11/07 07:43:29;;;;;;;12.93;10.55;;;;;;;2.81;100.00;96196.78;5064340;28;20029;-58
2022/11/07 07:46:03;;;;;;;17.67;13.13;;;;;;;2.85;100.00;96193.94;5064094;28;20458;-51
2022/11/07 07:48:30;;;;;;;13.77;10.40;;;;;;;2.98;100.00;96193.28;5038059;28;20036;-51
2022/11/07 07:50:56;;;;;;;13.45;11.90;;;;;;;2.96;100.00;96201.19;5063582;28;20056;-53
2022/11/07 07:53:21;;;;;;;15.93;12.35;;;;;;;2.96;100.00;96195.13;5061084;28;20068;-53
2022/11/07 07:55:46;;;;;;;14.50;12.07;;;;;;;2.94;100.00;96202.16;5065885;28;20074;-53
2022/11/07 07:58:13;;;;;;;13.20;7.93;;;;;;;2.94;100.00;96194.38;5065695;28;20541;-54
2022/11/07 08:00:39;;;;;;;11.20;10.10;;;;;;;2.97;100.00;96196.81;5040697;28;20021;-61
2022/11/07 08:03:10;;;;;;;20.10;16.13;;;;;;;3.00;100.00;96201.88;5053263;28;20476;-68
2022/11/07 08:05:39;;;;;;;41.70;30.38;;;;;;;3.01;100.00;96199.16;5066794;28;20029;-69
2022/11/07 08:08:06;;;;;;;56.45;36.85;;;;;;;3.02;100.00;96194.81;5069566;28;20047;-68
2022/11/07 08:10:32;;;;;;;89.25;60.65;;;;;;;2.99;100.00;96195.81;5065095;28;20642;-69
2022/11/07 08:12:57;;;;;;;37.50;28.10;;;;;;;2.99;100.00;96195.81;5071800;28;20043;-69
2022/11/07 08:15:23;;;;;;;61.10;45.40;;;;;;;3.01;100.00;96193.13;5071083;28;20131;-69
2022/11/07 08:17:48;;;;;;;58.95;45.40;;;;;;;3.01;100.00;96193.13;5070358;28;20440;-69
2022/11/07 08:20:16;;;;;;;27.60;22.33;;;;;;;3.01;100.00;96183.56;5071961;28;20111;-58
2022/11/07 08:22:42;;;;;;;29.35;23.88;;;;;;;3.05;100.00;96181.63;5067682;28;20059;-61
2022/11/07 08:25:09;;;;;;;22.00;18.75;;;;;;;3.06;100.00;96188.50;5068595;28;20040;-61
2022/11/07 08:27:35;;;;;;;19.88;15.57;;;;;;;3.15;100.00;96184.56;5062293;28;20040;-63
2022/11/07 08:30:02;;;;;;;15.27;13.40;;;;;;;3.36;100.00;96185.13;5071199;28;20121;-63
2022/11/07 08:32:27;;;;;;;18.85;13.30;;;;;;;3.42;100.00;96184.78;5066014;28;20033;-62
2022/11/07 08:34:53;;;;;;;17.02;11.30;;;;;;;3.56;100.00;96184.03;5057013;28;20521;-63
2022/11/07 08:37:18;;;;;;;9.80;8.30;;;;;;;3.84;100.00;96182.47;5066848;28;20037;-63
2022/11/07 08:39:44;;;;;;;10.18;8.27;;;;;;;4.07;100.00;96188.09;5065139;28;20524;-57
2022/11/07 08:42:10;;;;;;;6.70;6.10;;;;;;;4.26;100.00;96194.84;5070907;28;20036;-56
2022/11/07 08:44:35;;;;;;;7.78;6.97;;;;;;;4.46;100.00;96179.78;5069621;28;20044;-57
2022/11/07 08:47:04;;;;;;;9.20;7.13;;;;;;;4.61;100.00;96183.25;5060581;28;20502;-54
2022/11/07 08:49:29;;;;;;;10.85;7.30;;;;;;;4.73;100.00;96182.47;5054505;28;20115;-56
2022/11/07 08:51:55;;;;;;;7.18;4.45;;;;;;;4.90;100.00;96191.91;5070562;28;20115;-54
2022/11/07 08:54:20;;;;;;;4.05;3.75;;;;;;;5.05;100.00;96184.88;5070763;28;20098;-54
2022/11/07 08:56:48;;;;;;;5.03;4.55;;;;;;;5.18;100.00;96184.09;5061059;28;20045;-63
2022/11/07 08:59:14;;;;;;;19.55;14.10;;;;;;;5.31;100.00;96174.56;5064812;28;20036;-60
2022/11/07 09:01:39;;;;;;;16.20;13.20;;;;;;;5.39;100.00;96176.69;5065177;28;20855;-61
2022/11/07 09:04:05;;;;;;;24.02;19.75;;;;;;;5.46;100.00;96177.97;5065639;28;20033;-60
2022/11/07 09:06:33;;;;;;;12.23;10.80;;;;;;;5.52;100.00;96174.97;5066069;28;20115;-59
2022/11/07 09:08:59;;;;;;;5.55;5.05;;;;;;;5.62;100.00;96172.59;5060320;28;20024;-60
2022/11/07 09:11:25;;;;;;;7.82;7.03;;;;;;;5.78;100.00;96163.75;5067671;28;20437;-60
2022/11/07 09:13:52;;;;;;;6.75;5.75;;;;;;;5.91;100.00;96163.78;5064765;28;20484;-59
2022/11/07 09:16:18;;;;;;;7.03;6.32;;;;;;;5.98;100.00;96162.47;5070299;28;20036;-63
2022/11/07 09:18:45;;;;;;;4.93;4.55;;;;;;;6.09;100.00;96160.00;5068712;28;20052;-63
2022/11/07 09:21:10;;;;;;;7.50;6.80;;;;;;;6.25;100.00;96161.59;5069453;28;20473;-51
2022/11/07 09:23:36;;;;;;;9.90;5.57;;;;;;;6.47;100.00;96155.72;5066056;28;20068;-49
2022/11/07 09:26:01;;;;;;;3.00;2.80;;;;;;;6.69;100.00;96159.47;5055450;28;20044;-51
2022/11/07 09:28:27;;;;;;;4.03;2.75;;;;;;;6.82;100.00;96151.59;5066353;28;20037;-51
2022/11/07 09:30:54;;;;;;;3.65;2.90;;;;;;;6.95;100.00;96146.34;5066693;28;20033;-48
2022/11/07 09:33:21;;;;;;;3.15;2.47;;;;;;;7.13;100.00;96146.84;5047297;28;20040;-53
2022/11/07 09:35:47;;;;;;;3.40;3.10;;;;;;;7.30;100.00;96148.22;5061287;28;20498;-63
2022/11/07 09:38:13;;;;;;;3.80;3.60;;;;;;;7.39;100.00;96144.13;5064394;28;20036;-61
2022/11/07 09:40:47;;;;;;;3.97;3.65;;;;;;;7.40;100.00;96149.22;5046747;28;20031;-54
2022/11/07 09:43:18;;;;;;;3.13;2.88;;;;;;;7.44;100.00;96147.22;5068541;28;20044;-55
2022/11/07 09:46:03;;;;;;;2.75;2.55;;;;;;;7.55;100.00;96157.78;5069527;28;20111;-54
2022/11/07 09:48:39;;;;;;;8.95;2.30;;;;;;;7.68;100.00;96147.25;5066778;28;20103;-53
2022/11/07 09:51:11;;;;;;;4.30;2.30;;;;;;;7.82;100.00;96148.84;5063430;28;20071;-50
2022/11/07 09:53:43;;;;;;;3.17;1.85;;;;;;;7.92;100.00;96150.75;5068072;28;20044;-53
2022/11/07 09:56:11;;;;;;;2.83;1.90;;;;;;;8.05;100.00;96148.06;5058924;28;20076;-60
2022/11/07 09:58:41;;;;;;;2.10;2.00;;;;;;;8.17;100.00;96149.78;5063986;28;21435;-63
2022/11/07 10:01:12;;;;;;;2.90;2.70;;;;;;;8.28;100.00;96147.16;5058339;28;20425;-63
2022/11/07 10:03:39;;;;;;;2.45;2.35;;;;;;;8.43;100.00;96144.31;5067767;28;20128;-63
2022/11/07 10:06:26;;;;;;;3.25;2.95;;;;;;;8.55;100.00;96145.19;5061154;28;20044;-65
2022/11/07 10:09:02;;;;;;;3.63;2.30;;;;;;;8.71;100.00;96140.44;5069318;28;20033;-69
2022/11/07 10:11:33;;;;;;;2.50;2.35;;;;;;;8.85;99.32;96146.41;5060801;28;20040;-66
2022/11/07 10:14:17;;;;;;;2.17;2.05;;;;;;;9.17;96.00;96141.25;5068478;28;20032;-58
2022/11/07 10:17:08;;;;;;;6.35;2.38;;;;;;;9.44;90.28;96145.25;5068598;28;20098;-58
2022/11/07 10:20:11;;;;;;;3.20;2.20;;;;;;;9.54;87.05;96147.13;5067616;28;20036;-58
2022/11/07 10:22:36;;;;;;;2.45;2.25;;;;;;;9.53;87.59;96142.81;5069055;28;20056;-58
2022/11/07 10:25:24;;;;;;;4.70;2.53;;;;;;;9.55;87.69;96148.78;5068306;28;20090;-58
2022/11/07 10:28:00;;;;;;;3.65;2.47;;;;;;;9.60;87.10;96144.84;5063335;28;20037;-58
2022/11/07 10:30:25;;;;;;;3.72;2.53;;;;;;;9.69;88.52;96145.03;5062465;28;20066;-58
2022/11/07 10:33:16;;;;;;;2.38;2.28;;;;;;;9.66;87.26;96143.50;5065538;28;20113;-58
2022/11/07 10:35:46;;;;;;;2.10;2.00;;;;;;;9.60;86.72;96139.56;5064509;28;20409;-58
2022/11/07 10:38:20;;;;;;;3.25;2.28;;;;;;;9.62;87.17;96139.47;5058798;28;20036;-59
2022/11/07 10:40:47;;;;;;;1.90;1.80;;;;;;;9.68;88.05;96128.44;5066917;28;20037;-58
2022/11/07 10:43:38;;;;;;;2.88;2.65;;;;;;;9.78;85.17;96130.31;5068297;28;20039;-59
2022/11/07 10:46:19;;;;;;;4.28;3.45;;;;;;;9.94;86.95;96120.19;5058632;28;20056;-58
2022/11/07 10:48:51;;;;;;;5.05;2.83;;;;;;;10.02;85.71;96115.13;5067880;28;20055;-59
2022/11/07 10:51:16;;;;;;;2.05;1.95;;;;;;;10.12;85.64;96106.47;5064143;28;20102;-58
2022/11/07 10:53:43;;;;;;;8.55;7.03;;;;;;;10.18;82.93;96093.63;5061032;28;20032;-58
2022/11/07 10:56:11;;;;;;;4.47;2.80;;;;;;;10.34;83.11;96094.13;5064954;28;20036;-54
2022/11/07 10:58:44;;;;;;;2.25;2.15;;;;;;;10.48;79.93;96087.72;5034337;28;20036;-60
2022/11/07 11:01:10;;;;;;;2.08;1.98;;;;;;;10.51;80.96;96085.66;5064924;28;20094;-60
2022/11/07 11:03:42;;;;;;;2.85;2.67;;;;;;;10.71;80.96;96083.09;5076535;28;20037;-60
2022/11/07 11:06:18;;;;;;;3.15;2.70;;;;;;;10.84;78.47;96081.06;5067040;28;20036;-61
2022/11/07 11:08:45;;;;;;;3.47;2.60;;;;;;;10.81;77.39;96077.84;5068377;28;20036;-60
2022/11/07 11:11:17;;;;;;;2.90;2.70;;;;;;;10.82;76.55;96076.88;5068690;28;20049;-60
2022/11/07 11:13:43;;;;;;;3.58;2.83;;;;;;;10.83;77.41;96068.84;5033395;28;20036;-58
2022/11/07 11:16:23;;;;;;;2.90;2.50;;;;;;;10.85;74.16;96064.28;5068524;28;20082;-60
2022/11/07 11:18:51;;;;;;;2.90;2.70;;;;;;;10.96;74.57;96059.91;5062750;28;20044;-59
2022/11/07 11:21:16;;;;;;;3.00;2.80;;;;;;;11.02;76.35;96051.44;5067922;28;20036;-58
2022/11/07 11:23:44;;;;;;;3.10;2.80;;;;;;;11.34;75.06;96053.00;5068259;28;20090;-60
2022/11/07 11:26:15;;;;;;;2.55;2.40;;;;;;;11.34;74.14;96046.91;5047412;28;20608;-60
2022/11/07 11:28:44;;;;;;;2.75;2.55;;;;;;;11.41;75.65;96046.22;5064591;28;20032;-58
2022/11/07 11:31:20;;;;;;;3.85;2.60;;;;;;;11.57;73.62;96044.81;5067108;28;20596;-58
2022/11/07 11:34:16;;;;;;;2.65;2.45;;;;;;;11.82;75.57;96048.69;5046758;28;20510;-60
2022/11/07 11:36:55;;;;;;;2.60;2.43;;;;;;;11.89;71.67;96043.69;5053398;28;20051;-53
2022/11/07 11:39:29;;;;;;;2.83;2.55;;;;;;;11.92;73.89;96043.38;5064273;28;20287;-51
2022/11/07 11:41:56;;;;;;;2.80;2.58;;;;;;;11.93;72.55;96036.28;5069771;28;20036;-51